Airfield :
LOGIN :

Register | Disclaimer

   EN    FR    IT 

 










Legend :    VFR   Marginal VFR   IFR   Intensive IFR   Very Intensive IFR
Visi :
Ceiling :
>= 8 km
>= 3000ft
5 to 8 km
1000 to 3000 ft
1500m to 5 km
500 to 1000 ft
800 to 1500m
200 to 500 ft
< 800m
< 200 ft
Symbols :   Thunderstorms  Fog  Heavy snow  Heavy precipitations  Wind > 20 kt
SIGMETs :     Misc.  Thunderstorms  Icing  Turbulence  Mountain Waves  Volcanic Ashes






- Airport Elevation : 465 ft


ENFB - Statfjord B Platform

CURRENT METAR :
  • 200550Z AUTO 18038KT 9999NDV -SHRA BKN016/// BKN043/// 13/11 Q1018 W///S5

EXPIRED METARs :
  • 200520Z AUTO 18036KT 9999NDV -RA BKN015/// 13/11 Q1018 RERA W///S5
  • 200450Z AUTO 19039KT 3700NDV -RA BKN013/// 13/12 Q1018 RERA W///S5
  • 200420Z AUTO 19040KT 2600NDV SHRA SCT013/// BKN044/// 13/12 Q1018 W///S5
  • 200350Z AUTO 19039KT 7000NDV -SHRA BKN015/// 14/12 Q1018 W///S6
  • 200320Z AUTO 18043KT 9999NDV BKN018/// 14/11 Q1018 W///S5
  • 200250Z AUTO 18044KT 9999NDV FEW016/// SCT027/// BKN045/// 14/11 Q1018 W///S5

TAF N/A



MET'MAP, your aeronautical weather chart ! - Copyright ORBIFLY December 2007 - Disclaimer

ORBIFLY MET'MAP TEAM :

Programming & Development : Alexandra Zaïnal
Concept & original design : Baudouin d'Aumeries
Assistance for programming : Marc-Olivier Méhu
Technical & hardware support : Manuel Goepfert

Contact : metmap@orbifly.com




SOURCES & CREDITS :

   NOAA